Terminal Aerodrome Forecast
Issued by NWS Twin Cities, MN

Home | Current Version | Previous Version | Text Only | Print | Product List | Glossary Off
Versions: 1 2 3 4 5 6 7 8 9 10 11 12 13 14 15 16 17 18 19 20 21 22 23 24 25 26

345
FTUS43 KMPX 200520
TAFMSP
TAF
KMSP 200520Z 2006/2112 10005KT P6SM VCTS FEW015 BKN040CB BKN250
      TEMPO 2006/2007 5SM -TSRA BKN030CB
     FM200800 05004KT 6SM BR BKN015
      TEMPO 2010/2012 4SM BR
     FM201400 35006KT P6SM SCT015 BKN250
     FM201800 35008KT P6SM SCT200
     FM210100 VRB03KT P6SM SCT150
     FM211000 14004KT P6SM BKN100=

USA.gov is the U.S. government's official web portal to all federal, state and local government web resources and services.